sensor_id;sensor_type;location;lat;lon;timestamp;pressure;altitude;pressure_sealevel;temperature;humidity
26563;BME280;14217;50.986;5.826;2024-03-22T00:01:56;101605.59;;;20.44;45.23
26563;BME280;14217;50.986;5.826;2024-03-22T00:06:57;101594.13;;;20.42;45.26
26563;BME280;14217;50.986;5.826;2024-03-22T00:11:58;101580.81;;;20.42;45.00
26563;BME280;14217;50.986;5.826;2024-03-22T00:16:58;101586.91;;;20.46;45.28
26563;BME280;14217;50.986;5.826;2024-03-22T00:21:59;101570.13;;;20.44;45.21
26563;BME280;14217;50.986;5.826;2024-03-22T00:27:00;101564.66;;;20.47;45.21
26563;BME280;14217;50.986;5.826;2024-03-22T00:32:01;101562.19;;;20.42;45.18
26563;BME280;14217;50.986;5.826;2024-03-22T00:37:02;101551.53;;;20.42;45.04
26563;BME280;14217;50.986;5.826;2024-03-22T00:42:03;101537.31;;;20.43;45.03
26563;BME280;14217;50.986;5.826;2024-03-22T00:47:04;101532.00;;;20.43;45.19
26563;BME280;14217;50.986;5.826;2024-03-22T00:52:06;101528.28;;;20.47;45.11
26563;BME280;14217;50.986;5.826;2024-03-22T00:57:07;101533.81;;;20.43;45.37
26563;BME280;14217;50.986;5.826;2024-03-22T01:02:07;101530.94;;;20.47;45.11
26563;BME280;14217;50.986;5.826;2024-03-22T01:07:08;101533.72;;;20.44;45.15
26563;BME280;14217;50.986;5.826;2024-03-22T01:12:09;101527.53;;;20.44;45.14
26563;BME280;14217;50.986;5.826;2024-03-22T01:17:10;101533.88;;;20.41;45.42
26563;BME280;14217;50.986;5.826;2024-03-22T01:22:11;101518.69;;;20.43;45.08
26563;BME280;14217;50.986;5.826;2024-03-22T01:27:12;101505.25;;;20.46;45.02
26563;BME280;14217;50.986;5.826;2024-03-22T01:32:13;101497.25;;;20.46;45.04
26563;BME280;14217;50.986;5.826;2024-03-22T01:37:13;101488.47;;;20.44;45.39
26563;BME280;14217;50.986;5.826;2024-03-22T01:42:14;101483.13;;;20.44;45.39
26563;BME280;14217;50.986;5.826;2024-03-22T01:47:16;101486.00;;;20.40;45.55
26563;BME280;14217;50.986;5.826;2024-03-22T01:52:17;101478.69;;;20.45;45.24
26563;BME280;14217;50.986;5.826;2024-03-22T01:57:18;101465.50;;;20.42;45.56
26563;BME280;14217;50.986;5.826;2024-03-22T02:02:19;101456.66;;;20.41;45.40
26563;BME280;14217;50.986;5.826;2024-03-22T02:07:20;101445.03;;;20.44;45.52
26563;BME280;14217;50.986;5.826;2024-03-22T02:12:20;101431.66;;;20.45;45.30
26563;BME280;14217;50.986;5.826;2024-03-22T02:17:21;101452.94;;;20.45;45.29
26563;BME280;14217;50.986;5.826;2024-03-22T02:22:22;101449.47;;;20.43;45.33
26563;BME280;14217;50.986;5.826;2024-03-22T02:27:24;101440.56;;;20.44;45.34
26563;BME280;14217;50.986;5.826;2024-03-22T02:32:25;101423.78;;;20.42;45.22
26563;BME280;14217;50.986;5.826;2024-03-22T02:37:26;101420.19;;;20.43;45.46
26563;BME280;14217;50.986;5.826;2024-03-22T02:42:28;101429.09;;;20.42;45.50
26563;BME280;14217;50.986;5.826;2024-03-22T02:47:29;101430.06;;;20.41;45.48
26563;BME280;14217;50.986;5.826;2024-03-22T02:52:30;101409.41;;;20.46;45.15
26563;BME280;14217;50.986;5.826;2024-03-22T02:57:31;101410.41;;;20.44;45.47
26563;BME280;14217;50.986;5.826;2024-03-22T03:02:31;101396.16;;;20.45;45.46
26563;BME280;14217;50.986;5.826;2024-03-22T03:07:32;101396.09;;;20.46;45.43
26563;BME280;14217;50.986;5.826;2024-03-22T03:12:33;101387.47;;;20.41;45.38
26563;BME280;14217;50.986;5.826;2024-03-22T03:17:34;101375.06;;;20.40;45.48
26563;BME280;14217;50.986;5.826;2024-03-22T03:22:35;101377.47;;;20.46;45.36
26563;BME280;14217;50.986;5.826;2024-03-22T03:27:35;101371.34;;;20.44;45.46
26563;BME280;14217;50.986;5.826;2024-03-22T03:32:36;101370.69;;;20.39;45.38
26563;BME280;14217;50.986;5.826;2024-03-22T03:37:37;101372.41;;;20.40;45.24
26563;BME280;14217;50.986;5.826;2024-03-22T03:42:38;101368.56;;;20.47;45.24
26563;BME280;14217;50.986;5.826;2024-03-22T03:47:38;101360.56;;;20.47;45.34
26563;BME280;14217;50.986;5.826;2024-03-22T03:52:39;101350.13;;;20.43;45.36
26563;BME280;14217;50.986;5.826;2024-03-22T03:57:40;101336.88;;;20.41;45.34
26563;BME280;14217;50.986;5.826;2024-03-22T04:02:41;101331.28;;;20.47;45.24
26563;BME280;14217;50.986;5.826;2024-03-22T04:07:42;101333.00;;;20.48;45.04
26563;BME280;14217;50.986;5.826;2024-03-22T04:12:44;101307.56;;;20.43;45.28
26563;BME280;14217;50.986;5.826;2024-03-22T04:17:45;101289.09;;;20.38;45.29
26563;BME280;14217;50.986;5.826;2024-03-22T04:22:46;101296.75;;;20.46;45.40
26563;BME280;14217;50.986;5.826;2024-03-22T04:27:50;101295.00;;;20.45;45.28
26563;BME280;14217;50.986;5.826;2024-03-22T04:32:51;101294.03;;;20.47;45.00
26563;BME280;14217;50.986;5.826;2024-03-22T04:37:51;101283.66;;;20.41;45.45
26563;BME280;14217;50.986;5.826;2024-03-22T04:42:52;101271.94;;;20.45;45.22
26563;BME280;14217;50.986;5.826;2024-03-22T04:47:53;101267.53;;;20.44;45.43
26563;BME280;14217;50.986;5.826;2024-03-22T04:52:54;101251.56;;;20.44;45.26
26563;BME280;14217;50.986;5.826;2024-03-22T04:57:55;101265.81;;;20.43;45.26
26563;BME280;14217;50.986;5.826;2024-03-22T05:02:56;101255.09;;;20.45;45.12
26563;BME280;14217;50.986;5.826;2024-03-22T05:07:56;101250.94;;;20.39;45.57
26563;BME280;14217;50.986;5.826;2024-03-22T05:12:58;101248.84;;;20.46;45.07
26563;BME280;14217;50.986;5.826;2024-03-22T05:17:59;101241.66;;;20.48;45.40
26563;BME280;14217;50.986;5.826;2024-03-22T05:23:00;101248.09;;;20.42;45.34
26563;BME280;14217;50.986;5.826;2024-03-22T05:28:00;101249.13;;;20.40;45.19
26563;BME280;14217;50.986;5.826;2024-03-22T05:33:01;101250.72;;;20.44;45.25
26563;BME280;14217;50.986;5.826;2024-03-22T05:38:02;101241.94;;;20.42;45.11
26563;BME280;14217;50.986;5.826;2024-03-22T05:43:03;101247.97;;;20.45;45.04
26563;BME280;14217;50.986;5.826;2024-03-22T05:48:04;101227.59;;;20.44;45.11
26563;BME280;14217;50.986;5.826;2024-03-22T05:53:05;101243.94;;;20.37;45.20
26563;BME280;14217;50.986;5.826;2024-03-22T05:58:06;101240.13;;;20.42;45.22
26563;BME280;14217;50.986;5.826;2024-03-22T06:03:06;101241.19;;;20.38;45.23
26563;BME280;14217;50.986;5.826;2024-03-22T06:08:07;101231.22;;;20.43;45.35
26563;BME280;14217;50.986;5.826;2024-03-22T06:13:08;101229.41;;;20.44;45.33
26563;BME280;14217;50.986;5.826;2024-03-22T06:18:09;101224.94;;;20.44;45.07
26563;BME280;14217;50.986;5.826;2024-03-22T06:23:10;101226.81;;;20.42;45.25
26563;BME280;14217;50.986;5.826;2024-03-22T06:28:10;101241.06;;;20.41;45.44
26563;BME280;14217;50.986;5.826;2024-03-22T06:33:11;101230.44;;;20.41;45.35
26563;BME280;14217;50.986;5.826;2024-03-22T06:38:12;101226.81;;;20.42;45.40
26563;BME280;14217;50.986;5.826;2024-03-22T06:43:13;101228.56;;;20.43;45.07
26563;BME280;14217;50.986;5.826;2024-03-22T06:48:14;101218.53;;;20.48;45.14
26563;BME280;14217;50.986;5.826;2024-03-22T06:53:17;101218.75;;;20.44;45.40
26563;BME280;14217;50.986;5.826;2024-03-22T06:58:18;101214.31;;;20.44;45.35
26563;BME280;14217;50.986;5.826;2024-03-22T07:03:18;101215.25;;;20.43;45.02
26563;BME280;14217;50.986;5.826;2024-03-22T07:08:19;101205.47;;;20.44;45.03
26563;BME280;14217;50.986;5.826;2024-03-22T07:13:20;101207.50;;;20.39;45.46
26563;BME280;14217;50.986;5.826;2024-03-22T07:18:21;101210.06;;;20.40;45.36
26563;BME280;14217;50.986;5.826;2024-03-22T07:23:22;101211.84;;;20.40;45.10
26563;BME280;14217;50.986;5.826;2024-03-22T07:28:22;101213.59;;;20.41;45.41
26563;BME280;14217;50.986;5.826;2024-03-22T07:33:23;101214.88;;;20.32;46.04
26563;BME280;14217;50.986;5.826;2024-03-22T07:38:24;101208.84;;;20.28;47.40
26563;BME280;14217;50.986;5.826;2024-03-22T07:43:24;101210.00;;;20.42;47.07
26563;BME280;14217;50.986;5.826;2024-03-22T07:48:25;101197.03;;;20.34;46.52
26563;BME280;14217;50.986;5.826;2024-03-22T07:53:26;101183.22;;;20.26;47.13
26563;BME280;14217;50.986;5.826;2024-03-22T07:58:27;101193.94;;;20.24;47.11
26563;BME280;14217;50.986;5.826;2024-03-22T08:03:27;101189.78;;;20.38;46.86
26563;BME280;14217;50.986;5.826;2024-03-22T08:08:28;101182.59;;;20.40;46.58
26563;BME280;14217;50.986;5.826;2024-03-22T08:13:29;101182.75;;;20.37;46.54
26563;BME280;14217;50.986;5.826;2024-03-22T08:18:30;101184.50;;;20.36;46.36
26563;BME280;14217;50.986;5.826;2024-03-22T08:23:31;101197.53;;;20.42;46.01
26563;BME280;14217;50.986;5.826;2024-03-22T08:28:32;101189.25;;;20.48;45.83
26563;BME280;14217;50.986;5.826;2024-03-22T08:33:33;101195.81;;;20.41;45.69
26563;BME280;14217;50.986;5.826;2024-03-22T08:38:34;101186.88;;;20.42;45.99
26563;BME280;14217;50.986;5.826;2024-03-22T08:43:34;101183.22;;;20.45;45.61
26563;BME280;14217;50.986;5.826;2024-03-22T08:48:35;101170.00;;;20.43;45.84
26563;BME280;14217;50.986;5.826;2024-03-22T08:53:36;101184.66;;;20.52;45.69
26563;BME280;14217;50.986;5.826;2024-03-22T08:58:37;101188.88;;;20.58;45.50
26563;BME280;14217;50.986;5.826;2024-03-22T09:03:37;101182.63;;;20.57;46.14
26563;BME280;14217;50.986;5.826;2024-03-22T09:08:39;101182.53;;;20.41;46.37
26563;BME280;14217;50.986;5.826;2024-03-22T09:13:40;101178.31;;;20.55;46.13
26563;BME280;14217;50.986;5.826;2024-03-22T09:18:40;101169.50;;;20.54;46.29
26563;BME280;14217;50.986;5.826;2024-03-22T09:23:42;101166.66;;;20.57;46.47
26563;BME280;14217;50.986;5.826;2024-03-22T09:28:45;101171.13;;;20.57;46.39
26563;BME280;14217;50.986;5.826;2024-03-22T09:33:46;101159.38;;;20.62;46.38
26563;BME280;14217;50.986;5.826;2024-03-22T09:38:47;101161.25;;;20.60;46.31
26563;BME280;14217;50.986;5.826;2024-03-22T09:43:48;101161.34;;;20.57;46.06
26563;BME280;14217;50.986;5.826;2024-03-22T09:48:52;101157.72;;;20.60;45.90
26563;BME280;14217;50.986;5.826;2024-03-22T09:53:54;101143.66;;;20.56;46.12
26563;BME280;14217;50.986;5.826;2024-03-22T09:58:57;101151.63;;;20.58;45.81
26563;BME280;14217;50.986;5.826;2024-03-22T10:03:57;101150.91;;;20.52;45.76
26563;BME280;14217;50.986;5.826;2024-03-22T10:08:59;101146.38;;;20.55;45.82
26563;BME280;14217;50.986;5.826;2024-03-22T10:14:04;101136.53;;;20.57;45.58
26563;BME280;14217;50.986;5.826;2024-03-22T10:19:05;101133.88;;;20.57;45.67
26563;BME280;14217;50.986;5.826;2024-03-22T10:24:07;101131.00;;;20.61;45.33
26563;BME280;14217;50.986;5.826;2024-03-22T10:29:08;101127.66;;;20.58;45.55
26563;BME280;14217;50.986;5.826;2024-03-22T10:34:11;101113.41;;;20.57;45.61
26563;BME280;14217;50.986;5.826;2024-03-22T10:39:16;101110.84;;;20.56;45.69
26563;BME280;14217;50.986;5.826;2024-03-22T10:44:17;101120.56;;;20.57;45.79
26563;BME280;14217;50.986;5.826;2024-03-22T10:49:19;101104.53;;;20.58;45.35
26563;BME280;14217;50.986;5.826;2024-03-22T10:54:24;101108.25;;;20.54;45.82
26563;BME280;14217;50.986;5.826;2024-03-22T10:59:26;101103.34;;;20.64;45.47
26563;BME280;14217;50.986;5.826;2024-03-22T11:04:30;101092.03;;;20.60;45.42
26563;BME280;14217;50.986;5.826;2024-03-22T11:09:31;101097.19;;;20.63;45.55
26563;BME280;14217;50.986;5.826;2024-03-22T11:14:32;101078.47;;;20.65;45.29
26563;BME280;14217;50.986;5.826;2024-03-22T11:19:32;101089.28;;;20.62;45.38
26563;BME280;14217;50.986;5.826;2024-03-22T11:24:33;101091.00;;;20.63;45.17
26563;BME280;14217;50.986;5.826;2024-03-22T11:29:34;101084.72;;;20.64;45.16
26563;BME280;14217;50.986;5.826;2024-03-22T11:34:38;101081.22;;;20.63;45.51
26563;BME280;14217;50.986;5.826;2024-03-22T11:39:39;101084.72;;;20.64;45.44
26563;BME280;14217;50.986;5.826;2024-03-22T11:44:40;101088.34;;;20.63;45.25
26563;BME280;14217;50.986;5.826;2024-03-22T11:49:41;101077.53;;;20.66;45.26
26563;BME280;14217;50.986;5.826;2024-03-22T11:54:42;101072.44;;;20.61;45.32
26563;BME280;14217;50.986;5.826;2024-03-22T11:59:42;101062.50;;;20.65;45.27
26563;BME280;14217;50.986;5.826;2024-03-22T12:04:46;101060.00;;;20.62;45.49
26563;BME280;14217;50.986;5.826;2024-03-22T12:09:47;101052.03;;;20.62;45.29
26563;BME280;14217;50.986;5.826;2024-03-22T12:14:48;101042.22;;;20.62;45.17
26563;BME280;14217;50.986;5.826;2024-03-22T12:19:51;101034.31;;;20.61;45.21
26563;BME280;14217;50.986;5.826;2024-03-22T12:24:53;101033.28;;;20.63;45.14
26563;BME280;14217;50.986;5.826;2024-03-22T12:29:54;101017.47;;;20.60;45.50
26563;BME280;14217;50.986;5.826;2024-03-22T12:34:54;101012.84;;;20.64;45.23
26563;BME280;14217;50.986;5.826;2024-03-22T12:39:55;101012.25;;;20.57;45.19
26563;BME280;14217;50.986;5.826;2024-03-22T12:44:56;100998.06;;;20.58;45.56
26563;BME280;14217;50.986;5.826;2024-03-22T12:49:57;100986.47;;;20.59;45.31
26563;BME280;14217;50.986;5.826;2024-03-22T12:54:58;100984.56;;;20.61;45.40
26563;BME280;14217;50.986;5.826;2024-03-22T12:59:59;100983.66;;;20.62;45.11
26563;BME280;14217;50.986;5.826;2024-03-22T13:05:00;100964.31;;;20.59;45.41
26563;BME280;14217;50.986;5.826;2024-03-22T13:10:01;100962.44;;;20.61;45.18
26563;BME280;14217;50.986;5.826;2024-03-22T13:15:02;100964.31;;;20.59;45.13
26563;BME280;14217;50.986;5.826;2024-03-22T13:20:03;100960.72;;;20.60;45.23
26563;BME280;14217;50.986;5.826;2024-03-22T13:25:11;100962.59;;;20.58;45.41
26563;BME280;14217;50.986;5.826;2024-03-22T13:30:12;100948.63;;;20.52;45.54
26563;BME280;14217;50.986;5.826;2024-03-22T13:35:13;100946.91;;;20.51;45.55
26563;BME280;14217;50.986;5.826;2024-03-22T13:40:14;100922.94;;;20.51;45.58
26563;BME280;14217;50.986;5.826;2024-03-22T13:45:15;100919.41;;;20.51;45.67
26563;BME280;14217;50.986;5.826;2024-03-22T13:50:16;100923.56;;;20.57;45.35
26563;BME280;14217;50.986;5.826;2024-03-22T13:55:17;100919.19;;;20.56;45.63
26563;BME280;14217;50.986;5.826;2024-03-22T14:00:18;100920.13;;;20.55;45.53
26563;BME280;14217;50.986;5.826;2024-03-22T14:05:19;100909.78;;;20.48;45.68
26563;BME280;14217;50.986;5.826;2024-03-22T14:10:19;100912.69;;;20.44;45.91
26563;BME280;14217;50.986;5.826;2024-03-22T14:15:21;100906.09;;;20.51;45.59
26563;BME280;14217;50.986;5.826;2024-03-22T14:20:22;100880.69;;;20.45;45.80
26563;BME280;14217;50.986;5.826;2024-03-22T14:25:23;100887.56;;;20.49;45.69
26563;BME280;14217;50.986;5.826;2024-03-22T14:30:24;100883.94;;;20.50;45.49
26563;BME280;14217;50.986;5.826;2024-03-22T14:35:25;100876.91;;;20.49;45.45
26563;BME280;14217;50.986;5.826;2024-03-22T14:40:26;100878.03;;;20.45;45.64
26563;BME280;14217;50.986;5.826;2024-03-22T14:45:27;100877.06;;;20.46;45.47
26563;BME280;14217;50.986;5.826;2024-03-22T14:50:27;100872.44;;;20.50;45.28
26563;BME280;14217;50.986;5.826;2024-03-22T14:55:28;100873.56;;;20.46;45.57
26563;BME280;14217;50.986;5.826;2024-03-22T15:00:29;100857.66;;;20.44;45.51
26563;BME280;14217;50.986;5.826;2024-03-22T15:05:29;100847.97;;;20.43;45.31
26563;BME280;14217;50.986;5.826;2024-03-22T15:10:31;100855.78;;;20.46;45.34
26563;BME280;14217;50.986;5.826;2024-03-22T15:15:33;100836.69;;;20.38;45.44
26563;BME280;14217;50.986;5.826;2024-03-22T15:20:34;100834.97;;;20.37;45.62
26563;BME280;14217;50.986;5.826;2024-03-22T15:25:35;100833.09;;;20.39;45.47
26563;BME280;14217;50.986;5.826;2024-03-22T15:30:36;100837.38;;;20.42;45.32
26563;BME280;14217;50.986;5.826;2024-03-22T15:35:36;100827.59;;;20.42;45.30
26563;BME280;14217;50.986;5.826;2024-03-22T15:40:38;100822.28;;;20.42;45.42
26563;BME280;14217;50.986;5.826;2024-03-22T15:45:39;100815.25;;;20.41;45.18
26563;BME280;14217;50.986;5.826;2024-03-22T15:50:40;100818.84;;;20.40;45.43
26563;BME280;14217;50.986;5.826;2024-03-22T15:55:41;100810.59;;;20.45;45.40
26563;BME280;14217;50.986;5.826;2024-03-22T16:00:42;100802.78;;;20.42;45.05
26563;BME280;14217;50.986;5.826;2024-03-22T16:05:52;100794.81;;;20.42;45.21
26563;BME280;14217;50.986;5.826;2024-03-22T16:10:53;100787.44;;;20.47;45.29
26563;BME280;14217;50.986;5.826;2024-03-22T16:15:53;100785.00;;;20.42;45.04
26563;BME280;14217;50.986;5.826;2024-03-22T16:20:54;100777.22;;;20.39;45.46
26563;BME280;14217;50.986;5.826;2024-03-22T16:25:55;100772.81;;;20.38;45.41
26563;BME280;14217;50.986;5.826;2024-03-22T16:30:55;100770.78;;;20.43;45.35
26563;BME280;14217;50.986;5.826;2024-03-22T16:35:56;100768.53;;;20.36;45.37
26563;BME280;14217;50.986;5.826;2024-03-22T16:40:57;100768.19;;;20.42;45.45
26563;BME280;14217;50.986;5.826;2024-03-22T16:45:58;100764.75;;;20.40;45.08
26563;BME280;14217;50.986;5.826;2024-03-22T16:50:58;100771.81;;;20.41;45.01
26563;BME280;14217;50.986;5.826;2024-03-22T16:55:59;100763.06;;;20.39;45.26
26563;BME280;14217;50.986;5.826;2024-03-22T17:01:04;100746.38;;;20.35;45.28
26563;BME280;14217;50.986;5.826;2024-03-22T17:06:05;100753.25;;;20.39;45.27
26563;BME280;14217;50.986;5.826;2024-03-22T17:11:05;100738.16;;;20.40;45.34
26563;BME280;14217;50.986;5.826;2024-03-22T17:16:06;100735.66;;;20.37;45.19
26563;BME280;14217;50.986;5.826;2024-03-22T17:21:07;100735.94;;;20.48;45.60
26563;BME280;14217;50.986;5.826;2024-03-22T17:26:08;100733.53;;;20.43;45.91
26563;BME280;14217;50.986;5.826;2024-03-22T17:31:11;100737.22;;;20.41;45.74
26563;BME280;14217;50.986;5.826;2024-03-22T17:36:12;100728.34;;;20.40;45.90
26563;BME280;14217;50.986;5.826;2024-03-22T17:41:13;100722.25;;;20.38;45.75
26563;BME280;14217;50.986;5.826;2024-03-22T17:46:13;100716.41;;;20.31;45.89
26563;BME280;14217;50.986;5.826;2024-03-22T17:51:14;100706.53;;;20.34;45.78
26563;BME280;14217;50.986;5.826;2024-03-22T17:56:15;100700.88;;;20.40;45.41
26563;BME280;14217;50.986;5.826;2024-03-22T18:01:18;100705.34;;;20.39;45.60
26563;BME280;14217;50.986;5.826;2024-03-22T18:06:18;100707.72;;;20.28;45.66
26563;BME280;14217;50.986;5.826;2024-03-22T18:11:19;100713.03;;;20.28;46.10
26563;BME280;14217;50.986;5.826;2024-03-22T18:16:20;100712.72;;;20.34;45.94
26563;BME280;14217;50.986;5.826;2024-03-22T18:21:21;100697.00;;;20.29;45.74
26563;BME280;14217;50.986;5.826;2024-03-22T18:26:22;100699.97;;;20.41;46.45
26563;BME280;14217;50.986;5.826;2024-03-22T18:31:23;100701.22;;;20.34;47.50
26563;BME280;14217;50.986;5.826;2024-03-22T18:36:24;100700.28;;;20.35;47.08
26563;BME280;14217;50.986;5.826;2024-03-22T18:41:25;100703.81;;;20.35;46.67
26563;BME280;14217;50.986;5.826;2024-03-22T18:46:26;100709.19;;;20.34;46.89
26563;BME280;14217;50.986;5.826;2024-03-22T18:51:27;100696.84;;;20.33;46.55
26563;BME280;14217;50.986;5.826;2024-03-22T18:56:27;100688.78;;;20.34;46.21
26563;BME280;14217;50.986;5.826;2024-03-22T19:01:28;100682.66;;;20.32;46.26
26563;BME280;14217;50.986;5.826;2024-03-22T19:06:29;100682.00;;;20.28;46.20
26563;BME280;14217;50.986;5.826;2024-03-22T19:11:30;100683.56;;;20.33;46.05
26563;BME280;14217;50.986;5.826;2024-03-22T19:16:31;100679.09;;;20.33;45.95
26563;BME280;14217;50.986;5.826;2024-03-22T19:21:32;100688.88;;;20.33;46.21
26563;BME280;14217;50.986;5.826;2024-03-22T19:26:33;100679.16;;;20.31;46.16
26563;BME280;14217;50.986;5.826;2024-03-22T19:31:38;100672.03;;;20.32;45.77
26563;BME280;14217;50.986;5.826;2024-03-22T19:36:39;100679.34;;;20.28;45.77
26563;BME280;14217;50.986;5.826;2024-03-22T19:41:40;100679.94;;;20.34;45.57
26563;BME280;14217;50.986;5.826;2024-03-22T19:46:40;100675.56;;;20.33;45.76
26563;BME280;14217;50.986;5.826;2024-03-22T19:51:41;100665.84;;;20.31;45.78
26563;BME280;14217;50.986;5.826;2024-03-22T19:56:42;100655.28;;;20.30;45.55
26563;BME280;14217;50.986;5.826;2024-03-22T20:01:43;100649.03;;;20.31;45.81
26563;BME280;14217;50.986;5.826;2024-03-22T20:06:43;100646.38;;;20.31;45.48
26563;BME280;14217;50.986;5.826;2024-03-22T20:11:45;100648.78;;;20.36;45.48
26563;BME280;14217;50.986;5.826;2024-03-22T20:16:46;100648.97;;;20.33;45.67
26563;BME280;14217;50.986;5.826;2024-03-22T20:21:47;100649.03;;;20.31;45.47
26563;BME280;14217;50.986;5.826;2024-03-22T20:26:48;100647.16;;;20.33;45.33
26563;BME280;14217;50.986;5.826;2024-03-22T20:31:49;100643.53;;;20.34;45.42
